الصفحة الرئيسية
METAR-TAF:

METAR-TAF

مطار :

قاعدة البساتين الجوية

مكناس, المغرب

دائرة عرض: 33-53N, خط طول: 005-32W, ارتفاع: 576 متر

METAR: مفقودة

زمن: 04:21 (03:21 UTC)

توقعات

تاريخ ووقت الإصدار 4ساعات و 21 دقيقة قبل الساعة 23:00UTC
التوقعات صالحة من27 الساعة 00 UTC إلى 28 الساعة 06 UTC
ريح 6 عقدة من الشرق/الشمال الشرقي
الرؤية 10 كم أو أكثر
الغيوم لا تقل 1500 م ولا وجود لمزنة ركامية السحاب الأسود
مؤقت
من 27 الساعة 12 UTC إلى 27 الساعة 20 UTC
ريح 10 عقدة من الشمال الغربي
غيوم قليلة على ارتفاع 2300 قدم
غيوم متفرقة على ارتفاع 20000 قدم

TAF: GMFM 262300Z 2700/2806 07006KT CAVOK TEMPO 2712/2720 32010KT FEW023 SCT200

أرصاد الطقس والتوقعات من أكثر من 4000 مطار (تقارير الطقس للمطار METAR والتنبؤ بالطقس بالمطارTAF).

المحطات المتاحة هي النقط الصفراء والحمراء على الخريطة.

حرك المؤشر فوق النقطة لمعرفة اسم المحطة.

ثم انقر لمعرفة أرصاد وتوقعات الطقس.

لتغيير الخارطة: اضغط على الأزرار الخضراء مع رمز الصليب الأسود للتكبير. على الزر الأخضر مع شرطة للتصغير، أو على الأسهم الخضراء للخرائط المجاورة.


METAR-TAF: